Time;durP1;ratioP1;P1;durP2;ratioP2;P2;SDS_P1;SDS_P2;PMS_P1;PMS_P2;Temp;Humidity;BMP_temperature;BMP_pressure;BME280_temperature;BME280_humidity;BME280_pressure;Samples;Min_cycle;Max_cycle;Signal;HPM_P1;HPM_P2
2022/06/22 00:01:14;;;;;;;10.03;4.27;;;17.70;1.00;;;;;;5055148;28;20310;-85
2022/06/22 00:03:42;;;;;;;10.10;4.23;;;17.70;1.00;;;;;;5061097;28;20169;-84
2022/06/22 00:06:19;;;;;;;9.63;4.90;;;17.70;1.00;;;;;;5042768;28;20234;-85
2022/06/22 00:08:46;;;;;;;7.37;4.17;;;17.60;1.00;;;;;;5042488;28;20165;-85
2022/06/22 00:11:15;;;;;;;7.63;4.33;;;17.50;1.00;;;;;;5060196;28;20175;-85
2022/06/22 00:13:54;;;;;;;8.27;4.30;;;17.50;1.00;;;;;;5041886;28;20243;-85
2022/06/22 00:16:33;;;;;;;8.60;4.37;;;17.50;1.00;;;;;;5043025;28;20660;-87
2022/06/22 00:19:25;;;;;;;10.37;4.47;;;17.60;1.00;;;;;;5065662;28;20187;-86
2022/06/22 00:21:53;;;;;;;6.10;4.67;;;17.60;1.00;;;;;;5056645;28;20220;-85
2022/06/22 00:24:22;;;;;;;9.00;4.23;;;17.50;1.00;;;;;;5043566;28;20172;-88
2022/06/22 00:27:15;;;;;;;6.93;4.70;;;17.50;1.00;;;;;;5042297;28;20180;-85
2022/06/22 00:29:41;;;;;;;6.97;4.90;;;17.50;1.00;;;;;;5041591;28;20203;-85
2022/06/22 00:32:27;;;;;;;9.23;4.73;;;17.40;1.00;;;;;;5042135;28;20641;-86
2022/06/22 00:34:53;;;;;;;8.07;4.80;;;17.40;1.00;;;;;;5041489;28;20204;-86
2022/06/22 00:37:25;;;;;;;10.83;5.00;;;17.30;1.00;;;;;;5041929;28;20177;-86
2022/06/22 00:39:56;;;;;;;7.67;5.00;;;17.20;1.00;;;;;;5040993;28;20208;-87
2022/06/22 00:42:41;;;;;;;7.93;4.80;;;17.10;1.00;;;;;;5040809;28;20565;-86
2022/06/22 00:45:11;;;;;;;10.13;5.00;;;17.00;1.00;;;;;;5042286;28;20226;-84
2022/06/22 00:47:40;;;;;;;5.73;4.67;;;17.00;1.00;;;;;;5079632;28;20634;-85
2022/06/22 00:50:07;;;;;;;11.47;5.00;;;17.10;1.00;;;;;;5061338;28;20566;-84
2022/06/22 00:52:46;;;;;;;8.63;5.13;;;17.00;1.00;;;;;;5062074;28;20179;-86
2022/06/22 00:55:21;;;;;;;9.10;5.30;;;16.90;1.00;;;;;;5061703;28;20200;-87
2022/06/22 00:57:54;;;;;;;9.83;4.90;;;16.80;1.00;;;;;;5061714;28;20175;-85
2022/06/22 01:00:23;;;;;;;7.70;5.10;;;16.90;1.00;;;;;;5058410;28;20219;-86
2022/06/22 01:02:56;;;;;;;8.60;5.27;;;16.80;1.00;;;;;;5076351;28;20176;-86
2022/06/22 01:05:40;;;;;;;8.20;5.13;;;16.80;1.00;;;;;;5076286;28;20164;-86
2022/06/22 01:08:18;;;;;;;8.27;5.47;;;16.80;1.00;;;;;;5058176;28;20175;-86
2022/06/22 01:10:51;;;;;;;9.63;5.33;;;16.70;1.00;;;;;;5058213;28;20644;-85
2022/06/22 01:13:28;;;;;;;11.63;5.57;;;16.70;1.00;;;;;;5058127;28;20546;-85
2022/06/22 01:16:02;;;;;;;8.07;5.53;;;16.70;1.00;;;;;;5076208;28;20190;-87
2022/06/22 01:18:37;;;;;;;8.67;5.57;;;16.70;1.00;;;;;;5059829;28;20164;-84
2022/06/22 01:21:07;;;;;;;8.70;5.27;;;16.60;1.00;;;;;;5059996;28;20208;-85
2022/06/22 01:23:55;;;;;;;11.37;5.93;;;16.50;1.00;;;;;;5058570;28;20316;-85
2022/06/22 01:26:42;;;;;;;10.60;5.13;;;16.50;1.00;;;;;;5075896;28;20172;-85
2022/06/22 01:29:17;;;;;;;8.63;5.50;;;16.50;1.00;;;;;;5059888;28;20172;-85
2022/06/22 01:32:07;;;;;;;11.33;6.03;;;16.50;1.00;;;;;;5064291;28;20175;-85
2022/06/22 01:34:41;;;;;;;9.27;5.93;;;16.50;1.00;;;;;;5068132;28;20175;-86
2022/06/22 01:37:16;;;;;;;11.77;5.93;;;16.40;1.00;;;;;;5058087;28;20172;-85
2022/06/22 01:39:42;;;;;;;11.33;6.40;;;16.40;2.70;;;;;;5075745;28;20265;-87
2022/06/22 01:42:21;;;;;;;12.77;6.03;;;16.40;6.20;;;;;;5077763;28;20189;-86
2022/06/22 01:45:01;;;;;;;8.83;6.30;;;16.20;6.20;;;;;;5078439;28;20182;-85
2022/06/22 01:47:41;;;;;;;9.57;5.77;;;16.30;5.30;;;;;;5048681;28;20201;-86
2022/06/22 01:50:13;;;;;;;10.77;6.90;;;16.20;1.00;;;;;;5042534;28;20654;-86
2022/06/22 01:53:12;;;;;;;8.40;5.93;;;16.20;1.00;;;;;;5037749;28;20223;-87
2022/06/22 01:56:03;;;;;;;9.37;5.90;;;16.10;1.00;;;;;;5038371;28;20578;-85
2022/06/22 01:58:52;;;;;;;15.37;6.20;;;16.10;3.60;;;;;;5037201;28;20192;-86
2022/06/22 02:01:46;;;;;;;7.50;5.67;;;16.00;8.00;;;;;;5037008;28;20200;-84
2022/06/22 02:04:43;;;;;;;8.17;6.23;;;16.00;7.00;;;;;;5036194;28;20236;-84
2022/06/22 02:07:45;;;;;;;10.50;6.17;;;16.00;8.10;;;;;;5059489;28;20243;-84
2022/06/22 02:10:33;;;;;;;9.43;6.03;;;16.00;10.90;;;;;;5061590;28;20202;-85
2022/06/22 02:13:24;;;;;;;8.20;6.53;;;16.00;11.70;;;;;;5038143;28;20237;-84
2022/06/22 02:16:01;;;;;;;9.53;6.23;;;15.90;15.60;;;;;;5062293;28;20214;-84
2022/06/22 02:18:40;;;;;;;10.87;6.43;;;15.80;19.40;;;;;;5061908;28;20221;-84
2022/06/22 02:21:31;;;;;;;7.67;6.33;;;15.80;20.50;;;;;;5062467;28;20216;-85
2022/06/22 02:24:32;;;;;;;7.67;5.93;;;15.80;21.90;;;;;;5061955;28;20161;-83
2022/06/22 02:27:07;;;;;;;10.87;6.37;;;15.80;22.00;;;;;;5059666;28;20191;-82
2022/06/22 02:29:38;;;;;;;9.43;6.80;;;15.70;25.40;;;;;;5045510;28;20172;-83
2022/06/22 02:32:08;;;;;;;10.33;6.50;;;15.70;29.60;;;;;;5048705;28;20184;-85
2022/06/22 02:34:38;;;;;;;8.77;6.73;;;15.60;31.20;;;;;;5037168;28;20508;-86
2022/06/22 02:37:08;;;;;;;8.80;6.67;;;15.60;36.20;;;;;;5037006;28;20171;-84
2022/06/22 02:39:46;;;;;;;11.13;7.57;;;15.50;38.00;;;;;;5036729;28;20201;-86
2022/06/22 02:44:58;;;;;;;11.17;7.30;;;15.40;47.90;;;;;;5054796;28;20176;-84
2022/06/22 02:47:47;;;;;;;13.30;7.57;;;15.40;47.80;;;;;;5036642;28;20195;-84
2022/06/22 02:50:38;;;;;;;10.83;7.50;;;15.40;48.40;;;;;;5044204;28;20165;-84
2022/06/22 02:53:16;;;;;;;8.87;7.23;;;15.40;49.20;;;;;;5060222;28;20199;-86
2022/06/22 02:55:45;;;;;;;9.93;7.43;;;15.30;50.40;;;;;;5040017;28;20182;-84
2022/06/22 02:58:33;;;;;;;10.50;7.67;;;15.30;48.70;;;;;;5042520;28;20223;-83
2022/06/22 03:01:13;;;;;;;10.50;7.63;;;15.20;51.50;;;;;;5041031;28;20243;-83
2022/06/22 03:03:41;;;;;;;11.40;7.43;;;15.20;53.20;;;;;;5036498;28;20173;-85
2022/06/22 03:06:11;;;;;;;13.33;7.40;;;15.30;53.90;;;;;;5036004;28;20180;-84
2022/06/22 03:08:38;;;;;;;10.80;7.40;;;15.30;53.60;;;;;;5036364;28;20625;-83
2022/06/22 03:11:07;;;;;;;15.50;8.37;;;15.30;54.90;;;;;;5047030;28;20168;-83
2022/06/22 03:13:39;;;;;;;13.90;8.13;;;15.40;54.10;;;;;;5061380;28;20191;-85
2022/06/22 03:16:15;;;;;;;12.27;7.77;;;15.40;54.90;;;;;;5042401;28;20231;-84
2022/06/22 03:18:44;;;;;;;17.60;8.10;;;15.30;56.60;;;;;;5047737;28;20176;-84
2022/06/22 03:21:14;;;;;;;10.33;8.07;;;15.30;60.10;;;;;;5036084;28;20204;-85
2022/06/22 03:23:43;;;;;;;11.70;8.50;;;15.30;61.10;;;;;;5035416;28;20222;-85
2022/06/22 03:26:20;;;;;;;13.70;8.30;;;15.20;64.00;;;;;;5035868;28;20175;-86
2022/06/22 03:29:13;;;;;;;11.90;8.20;;;15.20;66.50;;;;;;5035628;28;20176;-87
2022/06/22 03:31:47;;;;;;;12.93;9.23;;;15.10;68.10;;;;;;5008541;28;20191;-86
2022/06/22 03:34:20;;;;;;;13.27;8.27;;;15.10;70.80;;;;;;5035614;28;20180;-86
2022/06/22 03:37:11;;;;;;;14.70;8.80;;;15.10;70.60;;;;;;5035617;28;20182;-86
2022/06/22 03:39:41;;;;;;;16.30;8.77;;;15.00;72.50;;;;;;5035418;28;20183;-86
2022/06/22 03:42:17;;;;;;;10.67;8.90;;;15.00;74.40;;;;;;5035663;28;20187;-85
2022/06/22 03:44:56;;;;;;;14.43;9.57;;;15.00;73.80;;;;;;5035407;28;20258;-86
2022/06/22 03:47:31;;;;;;;13.33;9.03;;;15.00;74.90;;;;;;5035315;28;20199;-86
2022/06/22 03:50:05;;;;;;;13.97;9.30;;;15.00;76.30;;;;;;5035303;28;20288;-86
2022/06/22 03:52:48;;;;;;;13.87;9.40;;;15.00;74.00;;;;;;5035087;28;20176;-86
2022/06/22 03:55:20;;;;;;;13.40;9.37;;;14.80;78.70;;;;;;5035320;28;20186;-86
2022/06/22 03:57:49;;;;;;;14.63;9.53;;;14.80;83.40;;;;;;5034987;28;20564;-86
2022/06/22 04:00:16;;;;;;;12.03;9.90;;;14.90;82.50;;;;;;5034904;28;20280;-86
2022/06/22 04:02:43;;;;;;;14.53;11.33;;;15.00;81.40;;;;;;5052719;28;20216;-86
2022/06/22 04:05:25;;;;;;;13.73;10.60;;;15.10;80.60;;;;;;5035126;28;20668;-88
2022/06/22 04:07:52;;;;;;;12.03;10.53;;;15.10;79.50;;;;;;5034786;28;20179;-86
2022/06/22 04:10:48;;;;;;;16.20;10.33;;;15.10;78.30;;;;;;5034957;28;20207;-86
2022/06/22 04:13:21;;;;;;;14.97;9.30;;;15.10;78.00;;;;;;5035217;28;20537;-86
2022/06/22 04:16:29;;;;;;;13.97;9.77;;;15.10;78.10;;;;;;5035329;28;20232;-86
2022/06/22 04:19:21;;;;;;;15.40;10.53;;;15.00;80.30;;;;;;4955880;28;20659;-86
2022/06/22 04:21:59;;;;;;;12.97;10.20;;;15.00;81.70;;;;;;5032937;28;20219;-88
2022/06/22 04:24:33;;;;;;;14.30;10.10;;;15.00;84.00;;;;;;5035063;28;20253;-87
2022/06/22 04:27:06;;;;;;;15.17;10.87;;;15.00;85.90;;;;;;5036816;28;20172;-87
2022/06/22 04:29:39;;;;;;;12.07;9.93;;;15.10;84.40;;;;;;5053108;28;20249;-87
2022/06/22 04:32:21;;;;;;;12.33;9.43;;;15.10;83.70;;;;;;5035485;28;20204;-88
2022/06/22 04:35:23;;;;;;;14.07;9.90;;;15.10;82.60;;;;;;5036604;28;20261;-86
2022/06/22 04:38:03;;;;;;;15.20;10.67;;;15.10;81.70;;;;;;5039482;28;20172;-87
2022/06/22 04:40:45;;;;;;;13.53;9.63;;;15.10;82.90;;;;;;5041038;28;20215;-86
2022/06/22 04:43:12;;;;;;;10.37;9.13;;;15.00;83.90;;;;;;5038901;28;20173;-89
2022/06/22 04:45:41;;;;;;;12.93;10.67;;;14.90;88.00;;;;;;5040046;28;20209;-86
2022/06/22 04:48:50;;;;;;;15.23;10.33;;;14.90;90.20;;;;;;5038737;28;20283;-88
2022/06/22 04:51:24;;;;;;;15.57;11.20;;;14.90;90.30;;;;;;5037770;28;20592;-86
2022/06/22 04:53:58;;;;;;;16.40;11.63;;;15.10;90.10;;;;;;5039732;28;20170;-87
2022/06/22 04:56:51;;;;;;;16.07;11.10;;;15.10;89.10;;;;;;5037735;28;20208;-87
2022/06/22 04:59:18;;;;;;;17.80;14.10;;;15.30;89.60;;;;;;5037290;28;20180;-85
2022/06/22 05:02:00;;;;;;;19.07;12.57;;;15.40;85.60;;;;;;5040147;28;20668;-83
2022/06/22 05:04:30;;;;;;;21.27;11.40;;;15.60;81.00;;;;;;5066822;28;20165;-85
2022/06/22 05:07:23;;;;;;;19.83;11.50;;;15.70;80.50;;;;;;5041386;28;20216;-89
2022/06/22 05:09:56;;;;;;;14.97;11.23;;;15.90;79.00;;;;;;5057383;28;20189;-86
2022/06/22 05:12:25;;;;;;;20.77;11.67;;;15.90;75.10;;;;;;5039111;28;20177;-88
2022/06/22 05:14:55;;;;;;;14.73;10.83;;;16.10;73.10;;;;;;5038617;28;20169;-89
2022/06/22 05:17:35;;;;;;;14.97;10.90;;;16.10;69.00;;;;;;5060253;28;20181;-89
2022/06/22 05:20:11;;;;;;;15.57;11.50;;;16.10;68.10;;;;;;5056782;28;20234;-88
2022/06/22 05:22:38;;;;;;;14.70;11.23;;;16.00;69.90;;;;;;5047835;28;20173;-88
2022/06/22 05:25:09;;;;;;;13.87;12.13;;;15.90;70.90;;;;;;5044963;28;20180;-88
2022/06/22 05:27:54;;;;;;;19.67;11.97;;;15.90;72.30;;;;;;5061074;28;20231;-89
2022/06/22 05:30:20;;;;;;;14.63;12.03;;;15.70;75.60;;;;;;5045601;28;20260;-88
2022/06/22 05:32:52;;;;;;;16.03;12.97;;;15.70;81.50;;;;;;5044164;28;20176;-89
2022/06/22 05:35:25;;;;;;;15.60;13.03;;;15.70;86.30;;;;;;5039820;28;20700;-88
2022/06/22 05:37:54;;;;;;;16.97;13.27;;;15.80;84.80;;;;;;5040224;28;20165;-87
2022/06/22 05:40:23;;;;;;;16.77;13.50;;;15.80;83.00;;;;;;5045161;28;20254;-88
2022/06/22 05:42:50;;;;;;;17.90;12.43;;;15.80;83.80;;;;;;5059605;28;20200;-88
2022/06/22 05:45:22;;;;;;;16.20;13.27;;;15.80;84.80;;;;;;5062127;28;20185;-87
2022/06/22 05:47:52;;;;;;;18.27;14.17;;;15.80;85.50;;;;;;5059020;28;20223;-88
2022/06/22 05:50:30;;;;;;;17.03;13.80;;;15.90;83.00;;;;;;5051237;28;20648;-89
2022/06/22 05:56:32;;;;;;;21.07;13.93;;;15.90;80.60;;;;;;5059778;28;20165;-90
2022/06/22 05:59:11;;;;;;;18.60;13.60;;;15.90;81.80;;;;;;5042356;28;20204;-86
2022/06/22 06:01:43;;;;;;;18.10;13.57;;;16.10;78.40;;;;;;5041031;28;20302;-86
2022/06/22 06:04:54;;;;;;;16.30;13.57;;;16.30;74.20;;;;;;5055052;28;20260;-87
2022/06/22 06:07:41;;;;;;;15.07;12.20;;;16.50;69.90;;;;;;5049095;28;20189;-86
2022/06/22 06:10:30;;;;;;;19.23;13.73;;;16.60;63.80;;;;;;5045374;28;20216;-86
2022/06/22 06:13:30;;;;;;;16.27;12.70;;;16.50;62.70;;;;;;5043386;28;20175;-88
2022/06/22 06:16:08;;;;;;;15.10;12.70;;;16.80;63.90;;;;;;5054878;28;20181;-89
2022/06/22 06:18:40;;;;;;;16.53;12.50;;;16.90;58.80;;;;;;5040526;28;20168;-90
2022/06/22 06:21:32;;;;;;;21.90;12.90;;;17.00;52.20;;;;;;5042047;28;20201;-90
2022/06/22 06:24:17;;;;;;;16.03;13.07;;;16.90;49.00;;;;;;5042333;28;20165;-93
2022/06/22 06:30:32;;;;;;;17.97;12.37;;;16.80;51.60;;;;;;5075005;28;20183;-90
2022/06/22 06:33:17;;;;;;;16.17;12.33;;;16.80;52.30;;;;;;5050158;28;20242;-81
2022/06/22 06:35:59;;;;;;;15.43;11.67;;;17.00;56.50;;;;;;5049738;28;20260;-88
2022/06/22 06:42:03;;;;;;;15.80;12.40;;;16.90;48.10;;;;;;5051852;28;20254;-90
2022/06/22 06:45:15;;;;;;;16.43;12.83;;;17.00;50.50;;;;;;5059692;28;20167;-86
2022/06/22 06:51:21;;;;;;;14.57;10.60;;;17.40;35.70;;;;;;5055674;28;20163;-87
2022/06/22 06:54:29;;;;;;;14.87;11.70;;;17.60;32.50;;;;;;5037534;28;20287;-86
2022/06/22 07:00:18;;;;;;;17.03;11.70;;;17.90;21.10;;;;;;5059603;28;20196;-86
2022/06/22 07:06:06;;;;;;;13.03;10.73;;;17.90;17.10;;;;;;5065835;28;20219;-86
2022/06/22 07:09:23;;;;;;;16.73;11.73;;;17.80;22.40;;;;;;5042783;28;20628;-87
2022/06/22 07:12:17;;;;;;;15.40;11.57;;;17.80;18.60;;;;;;5039106;28;20194;-86
2022/06/22 07:14:49;;;;;;;19.83;12.37;;;17.90;18.20;;;;;;5029140;28;20187;-86
2022/06/22 07:17:22;;;;;;;16.17;11.33;;;17.90;16.20;;;;;;5044861;28;20173;-86
2022/06/22 07:20:04;;;;;;;13.17;10.80;;;17.80;11.50;;;;;;5028822;28;20653;-87
2022/06/22 07:22:51;;;;;;;16.83;11.70;;;17.90;16.90;;;;;;5036828;28;20242;-88
2022/06/22 07:25:16;;;;;;;15.40;10.17;;;18.00;7.40;;;;;;5037426;28;20202;-89
2022/06/22 07:28:23;;;;;;;11.63;10.27;;;18.20;4.50;;;;;;5030677;28;20189;-86
2022/06/22 07:31:03;;;;;;;15.73;10.03;;;18.20;1.00;;;;;;5041892;28;20238;-87
2022/06/22 07:33:32;;;;;;;15.43;11.17;;;18.20;1.00;;;;;;5032324;28;20314;-88
2022/06/22 07:36:00;;;;;;;15.93;10.93;;;18.10;1.00;;;;;;5047590;28;20171;-91
2022/06/22 07:38:48;;;;;;;16.47;11.73;;;18.20;2.20;;;;;;5037518;28;20173;-94
2022/06/22 07:41:19;;;;;;;18.90;11.77;;;18.30;1.00;;;;;;5036703;28;20250;-94
2022/06/22 07:44:14;;;;;;;15.30;10.37;;;18.40;1.00;;;;;;5038038;28;20687;-88
2022/06/22 07:46:42;;;;;;;16.93;10.80;;;18.50;1.00;;;;;;5028126;28;20686;-89
2022/06/22 07:49:11;;;;;;;12.47;9.67;;;18.70;1.00;;;;;;5038328;28;20189;-93
2022/06/22 07:51:46;;;;;;;14.90;10.97;;;18.80;1.00;;;;;;5052176;28;20185;-91
2022/06/22 07:54:23;;;;;;;13.97;9.73;;;18.90;1.00;;;;;;5044659;28;20634;-89
2022/06/22 07:56:58;;;;;;;18.03;10.23;;;19.00;1.00;;;;;;5037356;28;20187;-88
2022/06/22 07:59:43;;;;;;;12.97;9.70;;;19.00;1.00;;;;;;5052985;28;20200;-90
2022/06/22 08:02:19;;;;;;;14.60;9.57;;;19.20;1.00;;;;;;5047244;28;20228;-92
2022/06/22 08:05:01;;;;;;;13.43;9.20;;;19.40;1.00;;;;;;5052747;28;20182;-93
2022/06/22 08:07:36;;;;;;;13.37;8.20;;;19.60;1.00;;;;;;5038258;28;20191;-90
2022/06/22 08:10:13;;;;;;;13.53;8.40;;;19.70;1.00;;;;;;5044798;28;20178;-92
2022/06/22 08:13:04;;;;;;;13.37;8.83;;;19.80;1.00;;;;;;5057920;28;20174;-87
2022/06/22 08:15:41;;;;;;;14.53;8.43;;;19.80;1.00;;;;;;5072916;28;20651;-93
2022/06/22 08:18:28;;;;;;;10.37;7.73;;;19.80;1.00;;;;;;5051745;28;20215;-86
2022/06/22 08:21:18;;;;;;;13.37;8.13;;;19.70;1.00;;;;;;5055942;28;20209;-86
2022/06/22 08:24:22;;;;;;;12.50;8.33;;;19.90;1.00;;;;;;5052410;28;20208;-86
2022/06/22 08:26:51;;;;;;;10.90;7.53;;;20.00;1.00;;;;;;5053522;28;20606;-86
2022/06/22 08:29:34;;;;;;;11.77;8.37;;;20.10;1.00;;;;;;5031013;28;20227;-90
2022/06/22 08:32:33;;;;;;;11.77;8.17;;;20.20;1.00;;;;;;5058103;28;20627;-92
2022/06/22 08:38:59;;;;;;;11.10;7.57;;;20.40;1.00;;;;;;5080734;28;20194;-88
2022/06/22 08:41:49;;;;;;;10.70;7.43;;;20.50;1.00;;;;;;5055306;28;20222;-87
2022/06/22 08:44:47;;;;;;;11.53;7.30;;;20.60;1.00;;;;;;5048763;28;20165;-87
2022/06/22 08:47:25;;;;;;;13.97;9.07;;;20.90;1.00;;;;;;5055976;28;20302;-90
2022/06/22 08:50:28;;;;;;;12.20;7.93;;;21.00;1.00;;;;;;5060343;28;20168;-87
2022/06/22 08:53:25;;;;;;;17.37;7.97;;;21.00;1.00;;;;;;5061205;28;20206;-90
2022/06/22 08:56:03;;;;;;;12.73;7.37;;;21.10;1.00;;;;;;5056248;28;20288;-84
2022/06/22 08:58:57;;;;;;;16.30;7.07;;;21.20;1.00;;;;;;5054989;28;20259;-86
2022/06/22 09:01:39;;;;;;;11.90;7.17;;;21.50;1.00;;;;;;5043089;28;20220;-89
2022/06/22 09:04:51;;;;;;;9.90;6.97;;;21.50;1.00;;;;;;5042800;28;20169;-87
2022/06/22 09:07:28;;;;;;;8.70;6.87;;;21.60;1.00;;;;;;5038134;28;20308;-88
2022/06/22 09:10:29;;;;;;;13.57;7.20;;;21.40;1.00;;;;;;5040043;28;20204;-84
2022/06/22 09:13:49;;;;;;;12.40;6.93;;;21.50;1.00;;;;;;5027010;28;20178;-89
2022/06/22 09:16:48;;;;;;;10.93;6.80;;;21.60;1.00;;;;;;4999400;28;20171;-87
2022/06/22 09:19:27;;;;;;;12.60;7.10;;;21.70;1.00;;;;;;5079391;28;20184;-82
2022/06/22 09:22:05;;;;;;;10.47;6.40;;;21.70;1.00;;;;;;5058363;28;20221;-82
2022/06/22 09:31:49;;;;;;;9.83;6.33;;;21.90;1.00;;;;;;5067921;28;20233;-92
2022/06/22 09:34:53;;;;;;;13.70;6.47;;;21.90;99.90;;;;;;5064287;28;20195;-93
2022/06/22 09:37:55;;;;;;;12.00;7.57;;;21.90;99.90;;;;;;5073541;28;20158;-86
2022/06/22 09:44:21;;;;;;;15.40;6.87;;;22.00;99.90;;;;;;5069940;28;20251;-85
2022/06/22 09:47:29;;;;;;;11.43;6.70;;;22.00;99.90;;;;;;5042690;28;20246;-85
2022/06/22 09:50:35;;;;;;;12.50;7.03;;;22.00;99.90;;;;;;5045589;28;20174;-84
2022/06/22 09:54:08;;;;;;;14.00;7.13;;;22.10;99.90;;;;;;5063394;28;20178;-86
2022/06/22 09:57:15;;;;;;;12.30;6.30;;;22.20;99.90;;;;;;5044182;28;20182;-87
2022/06/22 10:00:19;;;;;;;12.97;6.90;;;22.40;99.90;;;;;;5043304;28;20182;-86
2022/06/22 10:03:21;;;;;;;14.43;5.97;;;22.40;1.00;;;;;;5042299;28;20205;-86
2022/06/22 10:09:20;;;;;;;8.67;5.77;;;22.40;1.00;;;;;;5060551;28;20288;-85
2022/06/22 10:12:15;;;;;;;7.90;5.63;;;22.50;1.00;;;;;;5048283;28;20255;-87
2022/06/22 10:15:19;;;;;;;9.13;4.63;;;22.60;99.90;;;;;;5041888;28;20647;-86
2022/06/22 10:18:31;;;;;;;9.83;5.67;;;22.70;99.90;;;;;;5041593;28;20179;-86
2022/06/22 10:21:35;;;;;;;8.67;5.07;;;22.70;99.90;;;;;;5036740;28;20211;-85
2022/06/22 10:27:34;;;;;;;10.43;5.80;;;22.80;99.90;;;;;;5058034;28;20182;-85
2022/06/22 10:30:17;;;;;;;10.53;5.70;;;22.80;1.00;;;;;;5039957;28;20171;-85
2022/06/22 10:33:21;;;;;;;11.17;5.87;;;22.90;99.90;;;;;;5039925;28;20214;-87
2022/06/22 10:36:06;;;;;;;9.50;5.50;;;23.00;1.00;;;;;;5058499;28;20253;-85
2022/06/22 10:45:47;;;;;;;9.43;5.13;;;22.90;1.00;;;;;;5078775;28;20227;-85
2022/06/22 10:48:53;;;;;;;7.90;5.73;;;23.30;1.00;;;;;;5077904;28;20211;-86
2022/06/22 10:52:01;;;;;;;8.60;5.03;;;23.20;4.80;;;;;;5078592;28;20186;-87
2022/06/22 10:54:55;;;;;;;8.23;5.33;;;23.30;1.00;;;;;;5060139;28;20239;-87
2022/06/22 10:57:33;;;;;;;7.87;4.50;;;23.40;99.90;;;;;;5072357;28;20176;-86
2022/06/22 11:00:10;;;;;;;10.10;5.30;;;23.60;20.70;;;;;;5051279;28;20254;-88
2022/06/22 11:02:59;;;;;;;8.33;5.47;;;23.60;1.00;;;;;;5061270;28;20197;-86
2022/06/22 11:05:50;;;;;;;12.07;5.90;;;23.50;1.00;;;;;;5050148;28;20171;-87
2022/06/22 11:09:08;;;;;;;8.03;4.23;;;23.40;99.90;;;;;;5083312;28;20239;-90
2022/06/22 11:12:27;;;;;;;10.43;4.00;;;23.50;99.90;;;;;;5033549;28;20278;-91
2022/06/22 11:18:31;;;;;;;10.73;5.27;;;23.70;22.60;;;;;;5032651;28;20182;-93
2022/06/22 11:21:14;;;;;;;10.93;4.20;;;23.70;99.90;;;;;;5059406;28;20228;-86
2022/06/22 11:24:17;;;;;;;8.67;4.33;;;23.70;99.90;;;;;;5060368;28;20174;-85
2022/06/22 11:33:42;;;;;;;7.60;3.93;;;23.90;1.00;;;;;;5081818;28;20544;-85
2022/06/22 11:36:32;;;;;;;8.97;4.40;;;24.10;1.00;;;;;;5055844;28;20182;-84
2022/06/22 11:39:11;;;;;;;6.90;3.87;;;24.30;1.00;;;;;;5058532;28;20179;-91
2022/06/22 11:41:57;;;;;;;9.27;4.10;;;24.40;1.00;;;;;;5078019;28;20199;-85
2022/06/22 11:45:49;;;;;;;10.30;3.50;;;24.50;1.00;;;;;;5019522;28;20653;-88
2022/06/22 11:47:57;;;;;;;8.07;3.93;;;24.50;99.90;;;;;;5041081;28;20204;-83
2022/06/22 11:50:49;;;;;;;6.13;3.57;;;24.50;1.00;;;;;;5031926;28;20733;-82
2022/06/22 11:53:26;;;;;;;6.93;3.60;;;24.30;49.60;;;;;;5039616;28;20197;-86
2022/06/22 11:56:03;;;;;;;6.60;2.80;;;24.40;99.90;;;;;;5023012;28;20181;-95
2022/06/22 11:58:32;;;;;;;7.13;3.57;;;24.50;99.90;;;;;;5026984;28;20180;-88
2022/06/22 12:01:12;;;;;;;8.27;4.10;;;24.50;1.00;;;;;;5041725;28;20210;-87
2022/06/22 12:04:09;;;;;;;6.43;3.73;;;24.60;1.00;;;;;;5066075;28;20172;-85
2022/06/22 12:07:05;;;;;;;7.67;3.73;;;24.50;1.00;;;;;;5068670;28;20175;-86
2022/06/22 12:09:31;;;;;;;7.37;3.47;;;24.50;1.00;;;;;;5068641;28;20251;-84
2022/06/22 12:12:25;;;;;;;10.60;3.20;;;24.40;99.90;;;;;;5076855;28;20194;-86
2022/06/22 12:15:10;;;;;;;5.70;3.00;;;24.40;15.90;;;;;;5039463;28;20196;-85
2022/06/22 12:18:01;;;;;;;6.93;3.03;;;24.50;99.90;;;;;;5026082;28;20199;-83
2022/06/22 12:20:53;;;;;;;5.30;3.10;;;24.70;99.90;;;;;;5032536;28;20303;-85
2022/06/22 12:23:18;;;;;;;8.37;3.43;;;24.70;53.70;;;;;;5038116;28;20242;-94
2022/06/22 12:26:30;;;;;;;6.43;3.20;;;24.80;99.90;;;;;;5039588;28;20166;-84
2022/06/22 12:29:14;;;;;;;6.83;2.83;;;24.90;1.00;;;;;;5037188;28;20177;-86
2022/06/22 12:31:50;;;;;;;7.17;2.57;;;25.00;1.00;;;;;;5053541;28;20161;-82
2022/06/22 12:34:30;;;;;;;6.80;2.80;;;25.00;99.90;;;;;;5025893;28;20219;-85
2022/06/22 12:37:08;;;;;;;5.87;2.40;;;24.90;99.90;;;;;;5034976;28;20223;-84
2022/06/22 12:39:42;;;;;;;8.17;2.70;;;24.80;1.00;;;;;;5029056;28;20702;-85
2022/06/22 12:42:41;;;;;;;6.83;2.60;;;24.90;99.90;;;;;;5033816;28;20209;-85
2022/06/22 12:45:45;;;;;;;5.40;2.20;;;25.10;99.90;;;;;;5056126;28;20177;-91
2022/06/22 12:48:32;;;;;;;5.17;2.60;;;25.20;99.90;;;;;;5058185;28;20244;-91
2022/06/22 12:51:26;;;;;;;7.47;3.10;;;25.20;99.90;;;;;;5056066;28;20203;-86
2022/06/22 12:54:15;;;;;;;4.90;2.50;;;25.30;99.90;;;;;;5061190;28;20169;-86
2022/06/22 12:57:08;;;;;;;11.37;2.87;;;25.50;99.90;;;;;;5040850;28;20192;-85
2022/06/22 12:59:49;;;;;;;6.63;2.37;;;25.50;98.80;;;;;;5044399;28;20169;-86
2022/06/22 13:02:27;;;;;;;5.93;2.50;;;25.50;99.90;;;;;;5042093;28;20243;-86
2022/06/22 13:05:11;;;;;;;6.00;2.27;;;25.60;99.90;;;;;;5024955;28;20182;-84
2022/06/22 13:07:44;;;;;;;7.87;2.77;;;25.30;23.30;;;;;;5044294;28;20230;-85
2022/06/22 13:10:25;;;;;;;4.93;2.33;;;25.40;88.30;;;;;;5052541;28;20689;-86
2022/06/22 13:13:00;;;;;;;8.90;2.10;;;25.70;1.00;;;;;;5057187;28;20184;-86
2022/06/22 13:15:50;;;;;;;6.73;2.40;;;25.60;1.00;;;;;;5045447;28;20165;-84
2022/06/22 13:18:38;;;;;;;7.20;2.40;;;25.70;1.00;;;;;;5045458;28;20172;-84
2022/06/22 13:21:20;;;;;;;5.23;1.90;;;25.80;1.00;;;;;;5061470;28;20211;-83
2022/06/22 13:24:06;;;;;;;4.50;2.10;;;25.80;1.00;;;;;;5046382;28;20161;-84
2022/06/22 13:26:41;;;;;;;6.60;2.10;;;25.80;1.00;;;;;;5050373;28;20264;-86
2022/06/22 13:29:27;;;;;;;6.30;1.93;;;25.80;1.00;;;;;;5066545;28;20186;-86
2022/06/22 13:32:06;;;;;;;5.63;1.90;;;25.80;1.00;;;;;;5048956;28;20203;-90
2022/06/22 13:35:05;;;;;;;5.20;2.20;;;25.90;1.00;;;;;;5048296;28;20184;-85
2022/06/22 13:37:51;;;;;;;7.23;1.70;;;26.00;1.00;;;;;;5048403;28;20204;-87
2022/06/22 13:40:32;;;;;;;7.70;2.50;;;26.10;1.00;;;;;;5046130;28;20656;-86
2022/06/22 13:43:16;;;;;;;6.50;2.77;;;26.30;1.00;;;;;;5053472;28;20230;-85
2022/06/22 13:46:02;;;;;;;4.43;2.20;;;26.60;1.00;;;;;;5059972;28;20198;-87
2022/06/22 13:48:53;;;;;;;7.17;2.07;;;26.30;1.00;;;;;;5058624;28;20196;-87
2022/06/22 13:51:51;;;;;;;7.90;2.17;;;26.30;1.00;;;;;;5055868;28;20169;-85
2022/06/22 13:54:49;;;;;;;5.33;2.20;;;26.20;99.90;;;;;;5057380;28;20160;-87
2022/06/22 13:57:38;;;;;;;5.47;2.23;;;26.30;1.00;;;;;;5062305;28;20185;-87
2022/06/22 14:00:15;;;;;;;4.73;1.60;;;26.30;1.00;;;;;;5062931;28;20176;-88
2022/06/22 14:02:53;;;;;;;6.43;1.90;;;26.50;99.90;;;;;;5081112;28;20188;-87
2022/06/22 14:05:37;;;;;;;5.17;1.83;;;26.60;99.90;;;;;;5053366;28;20543;-87
2022/06/22 14:08:35;;;;;;;4.93;1.53;;;26.70;99.90;;;;;;5065211;28;20251;-86
2022/06/22 14:11:14;;;;;;;6.03;1.87;;;26.80;99.90;;;;;;5052161;28;20664;-88
2022/06/22 14:13:49;;;;;;;6.63;2.37;;;26.90;99.90;;;;;;5052091;28;20173;-87
2022/06/22 14:16:18;;;;;;;6.00;2.10;;;27.10;99.90;;;;;;5065719;28;20273;-86
2022/06/22 14:19:02;;;;;;;8.20;1.97;;;27.00;99.90;;;;;;5078453;28;20183;-86
2022/06/22 14:21:42;;;;;;;6.53;1.70;;;27.10;99.90;;;;;;5088108;28;20215;-86
2022/06/22 14:24:15;;;;;;;7.20;3.30;;;27.40;99.90;;;;;;5057661;28;20175;-84
2022/06/22 14:26:49;;;;;;;3.38;2.25;;;27.80;99.90;;;;;;5045276;28;20184;-85
2022/06/22 14:29:18;;;;;;;4.53;2.20;;;27.80;99.90;;;;;;5073931;28;20628;-86
2022/06/22 14:32:12;;;;;;;6.43;2.17;;;27.40;99.90;;;;;;5041332;28;20179;-87
2022/06/22 14:34:50;;;;;;;6.57;1.83;;;27.30;99.90;;;;;;5022530;28;20173;-88
2022/06/22 14:37:28;;;;;;;4.03;2.03;;;27.40;99.90;;;;;;5019519;28;20185;-89
2022/06/22 14:40:20;;;;;;;3.50;1.80;;;27.40;99.90;;;;;;5035294;28;20173;-85
2022/06/22 14:43:09;;;;;;;5.70;2.20;;;27.20;99.90;;;;;;5036755;28;20224;-88
2022/06/22 14:45:55;;;;;;;5.40;2.30;;;27.20;99.90;;;;;;5053936;28;20188;-86
2022/06/22 14:48:41;;;;;;;4.55;1.80;;;27.50;99.90;;;;;;5061324;28;20186;-91
2022/06/22 14:51:22;;;;;;;7.70;2.17;;;27.50;99.90;;;;;;5061482;28;20194;-92
2022/06/22 14:54:19;;;;;;;7.50;2.27;;;28.00;99.90;;;;;;5064617;28;20178;-86
2022/06/22 14:57:19;;;;;;;4.63;1.90;;;27.80;99.90;;;;;;5058694;28;20174;-86
2022/06/22 15:00:30;;;;;;;3.67;1.60;;;27.80;99.90;;;;;;5077824;28;20171;-86
2022/06/22 15:03:23;;;;;;;4.77;2.10;;;27.80;99.90;;;;;;5058361;28;20226;-86
2022/06/22 15:06:02;;;;;;;4.73;1.83;;;27.70;99.90;;;;;;5058429;28;20168;-88